createdAt,value
2022-09-28T00:01:23.993Z,81.35
2022-09-28T00:03:54.619Z,81.42
2022-09-28T00:06:26.815Z,81.34
2022-09-28T00:08:55.146Z,81.41
2022-09-28T00:11:25.497Z,81.63
2022-09-28T00:13:56.662Z,81.64
2022-09-28T00:16:27.965Z,81.77
2022-09-28T00:18:57.586Z,81.60
2022-09-28T00:21:28.221Z,81.60
2022-09-28T00:24:13.440Z,81.61
2022-09-28T00:26:44.903Z,81.88
2022-09-28T00:29:27.770Z,81.80
2022-09-28T00:32:00.280Z,82.04
2022-09-28T00:34:38.623Z,82.14
2022-09-28T00:37:09.272Z,81.92
2022-09-28T00:39:38.492Z,82.18
2022-09-28T00:42:19.475Z,82.12
2022-09-28T00:44:49.252Z,82.16
2022-09-28T00:47:25.982Z,82.17
2022-09-28T00:50:09.299Z,82.28
2022-09-28T00:53:11.803Z,82.31
2022-09-28T00:55:54.842Z,82.35
2022-09-28T00:58:32.173Z,82.28
2022-09-28T01:01:00.529Z,82.32
2022-09-28T01:03:29.663Z,82.41
2022-09-28T01:06:01.871Z,82.26
2022-09-28T01:08:32.745Z,82.41
2022-09-28T01:11:01.532Z,82.45
2022-09-28T01:13:33.077Z,82.33
2022-09-28T01:16:19.698Z,82.40
2022-09-28T01:18:59.377Z,82.54
2022-09-28T01:21:54.676Z,82.40
2022-09-28T01:24:48.185Z,82.41
2022-09-28T01:27:42.044Z,82.39
2022-09-28T01:30:17.231Z,82.42
2022-09-28T01:32:58.691Z,82.53
2022-09-28T01:35:35.528Z,82.53
2022-09-28T01:38:09.480Z,82.41
2022-09-28T01:40:38.211Z,82.58
2022-09-28T01:43:10.437Z,82.51
2022-09-28T01:45:49.120Z,82.58
2022-09-28T01:48:36.058Z,82.55
2022-09-28T01:51:10.583Z,82.45
2022-09-28T01:53:53.390Z,82.46
2022-09-28T01:56:31.886Z,82.53
2022-09-28T01:59:08.429Z,82.63
2022-09-28T02:01:46.222Z,82.80
2022-09-28T02:04:21.151Z,82.71
2022-09-28T02:06:57.095Z,82.68
2022-09-28T02:09:33.894Z,82.73
2022-09-28T02:12:19.721Z,82.65
2022-09-28T02:14:52.886Z,82.64
2022-09-28T02:17:21.714Z,82.65
2022-09-28T02:19:49.979Z,82.59
2022-09-28T02:22:28.795Z,82.49
2022-09-28T02:25:04.256Z,82.41
2022-09-28T02:27:36.530Z,82.34
2022-09-28T02:30:05.921Z,82.23
2022-09-28T02:32:40.526Z,82.24
2022-09-28T02:35:12.828Z,82.13
2022-09-28T02:37:40.879Z,82.16
2022-09-28T02:40:20.507Z,82.15
2022-09-28T02:42:57.408Z,82.18
2022-09-28T02:45:48.958Z,82.16
2022-09-28T02:48:55.753Z,82.18
2022-09-28T02:51:52.157Z,82.09
2022-09-28T02:54:30.083Z,82.15
2022-09-28T02:57:13.474Z,82.22
2022-09-28T02:59:54.190Z,82.28
2022-09-28T03:02:31.265Z,82.24
2022-09-28T03:05:21.653Z,82.24
2022-09-28T03:07:59.833Z,82.20
2022-09-28T03:10:47.708Z,82.20
2022-09-28T03:13:18.835Z,82.27
2022-09-28T03:15:49.024Z,82.17
2022-09-28T03:18:18.775Z,82.32
2022-09-28T03:20:49.588Z,82.40
2022-09-28T03:23:24.711Z,82.23
2022-09-28T03:25:56.220Z,82.28
2022-09-28T03:28:26.060Z,82.16
2022-09-28T03:30:54.400Z,82.38
2022-09-28T03:33:23.078Z,82.33
2022-09-28T03:35:54.729Z,82.29
2022-09-28T03:38:22.900Z,82.29
2022-09-28T03:40:59.676Z,82.35
2022-09-28T03:43:30.466Z,82.46
2022-09-28T03:46:01.912Z,82.32
2022-09-28T03:48:33.473Z,82.43
2022-09-28T03:51:04.520Z,82.48
2022-09-28T03:53:35.560Z,82.55
2022-09-28T03:56:12.783Z,82.42
2022-09-28T03:58:42.492Z,82.49
2022-09-28T04:01:17.632Z,82.46
2022-09-28T04:04:01.197Z,82.44
2022-09-28T04:06:40.444Z,82.64
2022-09-28T04:09:08.667Z,82.50
2022-09-28T04:11:53.190Z,82.39
2022-09-28T04:14:24.869Z,82.48
2022-09-28T04:16:55.351Z,82.35
2022-09-28T04:19:27.668Z,82.24
2022-09-28T04:22:14.470Z,82.25
2022-09-28T04:24:43.951Z,82.23
2022-09-28T04:27:30.431Z,82.30
2022-09-28T04:29:58.254Z,82.21
2022-09-28T04:32:26.048Z,82.33
2022-09-28T04:34:57.163Z,82.38
2022-09-28T04:37:25.568Z,82.21
2022-09-28T04:39:53.355Z,82.16
2022-09-28T04:42:22.499Z,82.22
2022-09-28T04:44:51.043Z,82.25
2022-09-28T04:47:18.824Z,82.26
2022-09-28T04:50:09.825Z,82.22
2022-09-28T04:52:57.812Z,82.40
2022-09-28T04:55:25.721Z,82.61
2022-09-28T04:57:54.910Z,82.56
2022-09-28T05:00:22.738Z,82.73
2022-09-28T05:03:06.053Z,82.70
2022-09-28T05:05:58.010Z,82.70
2022-09-28T05:08:38.065Z,82.90
2022-09-28T05:11:10.756Z,82.98
2022-09-28T05:13:48.988Z,82.88
2022-09-28T05:16:18.467Z,82.93
2022-09-28T05:19:07.229Z,83.00
2022-09-28T05:21:39.232Z,82.98
2022-09-28T05:24:08.319Z,82.94
2022-09-28T05:26:38.791Z,82.87
2022-09-28T05:29:08.919Z,82.91
2022-09-28T05:31:48.669Z,82.89
2022-09-28T05:34:35.407Z,83.08
2022-09-28T05:37:03.351Z,83.35
2022-09-28T05:39:31.695Z,83.88
2022-09-28T05:41:59.575Z,84.38
2022-09-28T05:44:27.667Z,84.54
2022-09-28T05:46:55.874Z,84.83
2022-09-28T05:49:24.014Z,84.84
2022-09-28T05:51:52.172Z,84.58
2022-09-28T05:54:20.400Z,84.18
2022-09-28T05:56:48.508Z,84.37
2022-09-28T05:59:17.353Z,84.21
2022-09-28T06:01:46.507Z,84.01
2022-09-28T06:04:16.291Z,83.24
2022-09-28T06:06:45.146Z,83.13
2022-09-28T06:09:13.199Z,83.13
2022-09-28T06:12:13.147Z,82.89
2022-09-28T06:14:47.824Z,82.46
2022-09-28T06:17:16.348Z,82.70
2022-09-28T06:19:49.202Z,82.66
2022-09-28T06:22:28.700Z,82.45
2022-09-28T06:25:07.498Z,82.28
2022-09-28T06:27:36.157Z,82.17
2022-09-28T06:30:04.260Z,82.55
2022-09-28T06:32:32.519Z,82.49
2022-09-28T06:35:00.813Z,82.19
2022-09-28T06:37:30.439Z,82.23
2022-09-28T06:39:59.191Z,82.12
2022-09-28T06:42:27.665Z,82.08
2022-09-28T06:45:20.272Z,81.88
2022-09-28T06:48:17.772Z,81.42
2022-09-28T06:50:47.658Z,80.92
2022-09-28T06:53:38.307Z,80.75
2022-09-28T06:56:12.444Z,80.93
2022-09-28T06:58:43.378Z,80.77
2022-09-28T07:01:12.154Z,80.21
2022-09-28T07:03:55.426Z,80.00
2022-09-28T07:06:48.173Z,79.89
2022-09-28T07:09:40.307Z,80.07
2022-09-28T07:12:16.540Z,79.84
2022-09-28T07:15:04.037Z,79.44
2022-09-28T07:17:43.435Z,79.32
2022-09-28T07:20:26.526Z,79.19
2022-09-28T07:23:17.439Z,78.70
2022-09-28T07:26:09.151Z,78.23
2022-09-28T07:29:02.415Z,78.11
2022-09-28T07:31:45.486Z,77.69
2022-09-28T07:34:23.667Z,77.65
2022-09-28T07:37:16.022Z,77.01
2022-09-28T07:40:05.277Z,76.94
2022-09-28T07:42:37.723Z,76.97
2022-09-28T07:45:07.943Z,76.83
2022-09-28T07:47:35.756Z,76.38
2022-09-28T07:50:33.154Z,76.69
2022-09-28T07:53:15.505Z,76.72
2022-09-28T07:56:09.864Z,76.80
2022-09-28T07:58:52.159Z,76.42
2022-09-28T08:01:52.208Z,76.07
2022-09-28T08:04:20.752Z,76.17
2022-09-28T08:06:49.405Z,75.92
2022-09-28T08:09:17.786Z,75.76
2022-09-28T08:12:20.497Z,75.65
2022-09-28T08:15:00.683Z,75.67
2022-09-28T08:17:50.488Z,74.90
2022-09-28T08:20:40.681Z,75.15
2022-09-28T08:23:10.397Z,75.35
2022-09-28T08:25:39.323Z,75.14
2022-09-28T08:28:09.261Z,74.81
2022-09-28T08:30:48.249Z,74.20
2022-09-28T08:33:35.626Z,74.08
2022-09-28T08:36:32.454Z,74.25
2022-09-28T08:39:05.313Z,73.87
2022-09-28T08:41:55.106Z,73.70
2022-09-28T08:44:52.123Z,73.41
2022-09-28T08:48:34.179Z,73.37
2022-09-28T08:51:33.831Z,72.68
2022-09-28T08:54:34.989Z,72.67
2022-09-28T08:57:21.477Z,72.53
2022-09-28T08:59:53.766Z,72.32
2022-09-28T09:02:33.931Z,71.97
2022-09-28T09:05:20.120Z,71.88
2022-09-28T09:08:15.799Z,71.89
2022-09-28T09:11:13.464Z,71.81
2022-09-28T09:14:36.631Z,71.80
2022-09-28T09:17:25.765Z,71.81
2022-09-28T09:20:35.467Z,71.34
2022-09-28T09:23:35.718Z,71.19
2022-09-28T09:26:24.932Z,70.94
2022-09-28T09:29:11.819Z,70.88
2022-09-28T09:31:49.948Z,70.92
2022-09-28T09:34:33.416Z,70.25
2022-09-28T09:37:53.162Z,70.24
2022-09-28T09:41:02.270Z,70.22
2022-09-28T09:43:58.957Z,69.76
2022-09-28T09:47:08.187Z,69.94
2022-09-28T09:49:49.552Z,69.63
2022-09-28T09:55:10.633Z,69.65
2022-09-28T09:57:51.547Z,69.57
2022-09-28T10:00:50.317Z,69.64
2022-09-28T10:03:30.953Z,69.74
2022-09-28T10:06:22.895Z,69.75
2022-09-28T10:09:10.366Z,69.83
2022-09-28T10:11:44.683Z,69.85
2022-09-28T10:14:21.554Z,70.17
2022-09-28T10:17:02.588Z,70.68
2022-09-28T10:19:50.563Z,70.72
2022-09-28T10:22:44.024Z,70.84
2022-09-28T10:25:15.915Z,71.03
2022-09-28T10:27:47.640Z,71.30
2022-09-28T10:30:23.423Z,71.26
2022-09-28T10:32:55.212Z,71.41
2022-09-28T10:35:40.645Z,71.62
2022-09-28T10:38:21.220Z,71.54
2022-09-28T10:41:10.052Z,71.72
2022-09-28T10:44:08.880Z,71.90
2022-09-28T10:46:59.766Z,72.00
2022-09-28T10:49:37.165Z,72.11
2022-09-28T10:52:29.986Z,72.08
2022-09-28T10:55:01.482Z,72.16
2022-09-28T10:57:40.952Z,72.27
2022-09-28T11:00:47.042Z,72.34
2022-09-28T11:03:24.595Z,72.65
2022-09-28T11:05:55.382Z,72.27
2022-09-28T11:08:28.889Z,72.19
2022-09-28T11:11:02.986Z,72.28
2022-09-28T11:13:31.837Z,72.35
2022-09-28T11:16:04.682Z,72.43
2022-09-28T11:18:35.042Z,72.62
2022-09-28T11:21:16.802Z,72.58
2022-09-28T11:24:01.550Z,72.76
2022-09-28T11:26:40.980Z,72.74
2022-09-28T11:29:23.781Z,72.80
2022-09-28T11:32:06.978Z,72.88
2022-09-28T11:35:02.162Z,73.06
2022-09-28T11:37:51.969Z,73.16
2022-09-28T11:41:08.400Z,73.35
2022-09-28T11:43:42.587Z,73.38
2022-09-28T11:46:26.147Z,73.61
2022-09-28T11:48:59.850Z,73.58
2022-09-28T11:51:32.608Z,73.61
2022-09-28T11:54:34.680Z,73.62
2022-09-28T11:57:05.295Z,73.71
2022-09-28T11:59:56.731Z,73.40
2022-09-28T12:02:37.561Z,73.22
2022-09-28T12:05:21.374Z,73.09
2022-09-28T12:07:59.838Z,73.00
2022-09-28T12:11:00.450Z,73.06
2022-09-28T12:13:52.810Z,72.95
2022-09-28T12:16:53.700Z,72.80
2022-09-28T12:19:21.882Z,72.74
2022-09-28T12:21:53.259Z,72.75
2022-09-28T12:24:29.470Z,72.69
2022-09-28T12:27:35.310Z,72.73
2022-09-28T12:30:22.154Z,72.70
2022-09-28T12:33:08.923Z,72.81
2022-09-28T12:36:00.567Z,72.97
2022-09-28T12:38:54.130Z,73.00
2022-09-28T12:41:50.704Z,72.61
2022-09-28T12:44:47.425Z,72.41
2022-09-28T12:47:45.985Z,72.40
2022-09-28T12:50:47.503Z,72.45
2022-09-28T12:53:32.475Z,72.35
2022-09-28T12:56:16.833Z,72.30
2022-09-28T12:59:16.313Z,72.30
2022-09-28T13:02:23.328Z,72.32
2022-09-28T13:05:34.877Z,72.20
2022-09-28T13:08:13.768Z,72.35
2022-09-28T13:10:52.888Z,72.31
2022-09-28T13:13:48.020Z,72.33
2022-09-28T13:16:39.063Z,72.45
2022-09-28T13:19:17.216Z,72.64
2022-09-28T13:22:22.077Z,72.46
2022-09-28T13:24:55.241Z,72.47
2022-09-28T13:27:33.536Z,72.83
2022-09-28T13:30:06.974Z,72.88
2022-09-28T13:32:39.150Z,73.04
2022-09-28T13:35:07.441Z,73.05
2022-09-28T13:37:35.538Z,72.76
2022-09-28T13:40:06.476Z,72.58
2022-09-28T13:42:44.606Z,72.68
2022-09-28T13:45:21.598Z,72.59
2022-09-28T13:48:20.455Z,72.55
2022-09-28T13:51:23.594Z,72.47
2022-09-28T13:54:08.996Z,72.71
2022-09-28T13:56:40.938Z,72.75
2022-09-28T13:59:19.634Z,72.57
2022-09-28T14:02:07.433Z,72.74
2022-09-28T14:04:58.314Z,72.70
2022-09-28T14:07:58.570Z,72.85
2022-09-28T14:10:57.119Z,72.61
2022-09-28T14:13:44.362Z,72.68
2022-09-28T14:16:24.279Z,72.81
2022-09-28T14:19:27.043Z,73.07
2022-09-28T14:22:22.042Z,73.01
2022-09-28T14:24:59.218Z,72.76
2022-09-28T14:27:33.540Z,72.61
2022-09-28T14:30:24.831Z,72.55
2022-09-28T14:32:58.984Z,72.65
2022-09-28T14:35:40.545Z,72.55
2022-09-28T14:39:03.440Z,72.24
2022-09-28T14:41:40.294Z,72.13
2022-09-28T14:44:10.998Z,71.70
2022-09-28T14:46:46.884Z,71.65
2022-09-28T14:49:18.269Z,71.65
2022-09-28T14:52:02.390Z,71.48
2022-09-28T14:54:56.937Z,71.27
2022-09-28T14:57:31.265Z,70.99
2022-09-28T15:00:00.932Z,70.90
2022-09-28T15:02:38.744Z,70.78
2022-09-28T15:05:06.749Z,70.77
2022-09-28T15:07:52.018Z,70.92
2022-09-28T15:10:32.501Z,70.90
2022-09-28T15:13:15.177Z,70.73
2022-09-28T15:15:50.709Z,70.74
2022-09-28T15:18:21.622Z,70.82
2022-09-28T15:20:50.458Z,70.69
2022-09-28T15:23:39.815Z,70.90
2022-09-28T15:26:24.485Z,70.78
2022-09-28T15:28:54.787Z,70.61
2022-09-28T15:31:26.427Z,70.44
2022-09-28T15:36:59.249Z,70.66
2022-09-28T15:39:58.317Z,70.73
2022-09-28T15:42:26.425Z,70.86
2022-09-28T15:45:26.662Z,70.75
2022-09-28T15:48:20.920Z,70.85
2022-09-28T15:51:16.666Z,71.00
2022-09-28T15:54:04.379Z,71.04
2022-09-28T15:56:52.062Z,70.90
2022-09-28T15:59:40.910Z,70.96
2022-09-28T16:02:17.058Z,71.00
2022-09-28T16:04:50.637Z,71.00
2022-09-28T16:07:23.319Z,71.04
2022-09-28T16:10:02.524Z,70.96
2022-09-28T16:12:38.973Z,71.09
2022-09-28T16:15:18.380Z,71.10
2022-09-28T16:17:52.594Z,71.17
2022-09-28T16:20:41.726Z,71.29
2022-09-28T16:23:22.210Z,71.30
2022-09-28T16:26:00.689Z,71.38
2022-09-28T16:28:37.904Z,71.48
2022-09-28T16:31:27.333Z,71.50
2022-09-28T16:34:01.716Z,71.56
2022-09-28T16:36:44.233Z,71.51
2022-09-28T16:39:14.128Z,71.54
2022-09-28T16:41:48.522Z,71.67
2022-09-28T16:44:23.842Z,71.61
2022-09-28T16:46:55.571Z,71.61
2022-09-28T16:49:28.432Z,71.69
2022-09-28T16:51:57.059Z,71.92
2022-09-28T16:54:43.983Z,71.96
2022-09-28T16:57:14.912Z,71.89
2022-09-28T16:59:44.050Z,71.90
2022-09-28T17:02:45.303Z,71.89
2022-09-28T17:05:10.565Z,71.98
2022-09-28T17:07:39.693Z,71.82
2022-09-28T17:10:23.728Z,71.79
2022-09-28T17:12:52.228Z,71.85
2022-09-28T17:15:20.457Z,71.87
2022-09-28T17:17:49.216Z,72.02
2022-09-28T17:20:29.866Z,72.02
2022-09-28T17:22:57.688Z,71.61
2022-09-28T17:25:27.311Z,71.35
2022-09-28T17:27:57.644Z,71.38
2022-09-28T17:30:26.303Z,71.26
2022-09-28T17:32:54.137Z,71.04
2022-09-28T17:35:24.599Z,70.82
2022-09-28T17:37:54.787Z,71.03
2022-09-28T17:40:28.522Z,70.90
2022-09-28T17:42:58.014Z,70.93
2022-09-28T17:45:31.398Z,70.97
2022-09-28T17:48:00.953Z,70.94
2022-09-28T17:50:33.785Z,70.74
2022-09-28T17:53:06.810Z,70.74
2022-09-28T17:55:37.003Z,70.69
2022-09-28T17:58:17.084Z,70.62
2022-09-28T18:00:50.149Z,70.51
2022-09-28T18:03:21.377Z,70.47
2022-09-28T18:05:58.205Z,70.53
2022-09-28T18:08:26.527Z,70.58
2022-09-28T18:10:55.022Z,70.62
2022-09-28T18:13:26.362Z,70.58
2022-09-28T18:15:56.161Z,70.55
2022-09-28T18:18:25.180Z,70.67
2022-09-28T18:20:53.315Z,70.59
2022-09-28T18:23:24.822Z,70.69
2022-09-28T18:25:53.098Z,70.78
2022-09-28T18:28:23.110Z,70.86
2022-09-28T18:30:51.491Z,70.86
2022-09-28T18:33:19.480Z,70.90
2022-09-28T18:35:52.993Z,70.93
2022-09-28T18:38:21.700Z,70.89
2022-09-28T18:40:50.141Z,71.07
2022-09-28T18:43:18.061Z,71.07
2022-09-28T18:45:46.088Z,71.07
2022-09-28T18:48:16.373Z,71.15
2022-09-28T18:50:45.188Z,71.17
2022-09-28T18:53:14.017Z,71.29
2022-09-28T18:55:43.288Z,71.19
2022-09-28T18:58:12.115Z,71.23
2022-09-28T19:00:41.186Z,71.19
2022-09-28T19:03:11.935Z,71.13
2022-09-28T19:05:43.702Z,71.07
2022-09-28T19:08:13.357Z,71.31
2022-09-28T19:10:41.397Z,71.30
2022-09-28T19:13:09.500Z,71.40
2022-09-28T19:15:39.198Z,71.31
2022-09-28T19:18:07.352Z,71.36
2022-09-28T19:20:36.052Z,71.27
2022-09-28T19:23:04.514Z,71.38
2022-09-28T19:25:35.396Z,71.41
2022-09-28T19:28:03.448Z,71.47
2022-09-28T19:30:32.139Z,71.46
2022-09-28T19:33:01.711Z,71.51
2022-09-28T19:35:31.127Z,71.48
2022-09-28T19:37:59.269Z,71.54
2022-09-28T19:40:27.780Z,71.53
2022-09-28T19:42:57.692Z,71.55
2022-09-28T19:45:25.500Z,71.71
2022-09-28T19:47:57.324Z,71.74
2022-09-28T19:50:27.111Z,71.84
2022-09-28T19:52:57.274Z,71.84
2022-09-28T19:55:25.322Z,71.92
2022-09-28T19:57:56.556Z,71.74
2022-09-28T20:00:25.356Z,71.66
2022-09-28T20:02:53.603Z,71.71
2022-09-28T20:05:21.348Z,71.82
2022-09-28T20:07:49.226Z,71.88
2022-09-28T20:10:17.109Z,71.99
2022-09-28T20:12:45.309Z,71.97
2022-09-28T20:15:13.411Z,72.13
2022-09-28T20:17:41.141Z,72.26
2022-09-28T20:20:09.638Z,72.14
2022-09-28T20:22:38.317Z,72.10
2022-09-28T20:25:06.491Z,72.29
2022-09-28T20:27:34.696Z,72.17
2022-09-28T20:30:03.334Z,72.21
2022-09-28T20:32:32.232Z,72.33
2022-09-28T20:35:02.343Z,72.41
2022-09-28T20:37:31.062Z,72.31
2022-09-28T20:40:01.049Z,72.46
2022-09-28T20:42:30.072Z,72.57
2022-09-28T20:44:58.336Z,72.63
2022-09-28T20:47:26.891Z,72.50
2022-09-28T20:49:54.785Z,72.53
2022-09-28T20:52:23.278Z,72.59
2022-09-28T20:54:51.061Z,72.61
2022-09-28T20:57:19.233Z,72.67
2022-09-28T20:59:52.283Z,72.72
2022-09-28T21:02:22.671Z,72.54
2022-09-28T21:04:50.432Z,72.75
2022-09-28T21:07:18.173Z,72.91
2022-09-28T21:09:45.977Z,73.00
2022-09-28T21:12:15.799Z,73.01
2022-09-28T21:14:44.328Z,73.13
2022-09-28T21:17:12.421Z,73.08
2022-09-28T21:19:40.358Z,73.27
2022-09-28T21:22:08.101Z,73.18
2022-09-28T21:24:35.928Z,73.16
2022-09-28T21:27:04.363Z,73.28
2022-09-28T21:29:32.066Z,73.24
2022-09-28T21:32:00.306Z,73.37
2022-09-28T21:34:28.538Z,73.47
2022-09-28T21:36:56.278Z,73.62
2022-09-28T21:39:25.396Z,73.58
2022-09-28T21:41:53.670Z,73.61
2022-09-28T21:44:21.829Z,73.75
2022-09-28T21:46:50.323Z,73.88
2022-09-28T21:49:19.601Z,73.94
2022-09-28T21:52:14.545Z,74.00
2022-09-28T21:54:42.721Z,74.01
2022-09-28T21:57:12.208Z,73.99
2022-09-28T21:59:39.931Z,74.10
2022-09-28T22:02:08.575Z,74.03
2022-09-28T22:04:38.984Z,73.98
2022-09-28T22:07:06.746Z,74.03
2022-09-28T22:09:34.589Z,74.19
2022-09-28T22:12:02.404Z,74.32
2022-09-28T22:14:30.135Z,74.21
2022-09-28T22:16:57.877Z,74.30
2022-09-28T22:19:26.932Z,74.38
2022-09-28T22:21:54.777Z,74.40
2022-09-28T22:24:22.551Z,74.51
2022-09-28T22:26:50.345Z,74.86
2022-09-28T22:29:18.506Z,74.79
2022-09-28T22:31:46.288Z,75.01
2022-09-28T22:34:14.178Z,75.04
2022-09-28T22:36:42.140Z,75.08
2022-09-28T22:39:09.962Z,75.17
2022-09-28T22:41:39.003Z,75.13
2022-09-28T22:44:06.793Z,75.16
2022-09-28T22:46:35.624Z,75.25
2022-09-28T22:49:05.263Z,75.29
2022-09-28T22:51:34.268Z,75.20
2022-09-28T22:54:02.001Z,75.30
2022-09-28T22:56:30.809Z,75.43
2022-09-28T22:58:59.289Z,75.51
2022-09-28T23:01:28.422Z,75.51
2022-09-28T23:03:58.822Z,75.52
2022-09-28T23:06:28.826Z,75.82
2022-09-28T23:08:57.228Z,75.74
2022-09-28T23:11:25.308Z,75.81
2022-09-28T23:13:54.346Z,75.74
2022-09-28T23:16:25.455Z,75.89
2022-09-28T23:18:54.475Z,76.02
2022-09-28T23:21:23.772Z,76.11
2022-09-28T23:23:53.395Z,76.07
2022-09-28T23:26:23.724Z,76.11
2022-09-28T23:28:53.154Z,76.13
2022-09-28T23:31:24.286Z,76.14
2022-09-28T23:33:53.470Z,76.23
2022-09-28T23:36:21.855Z,76.22
2022-09-28T23:38:49.727Z,76.24
2022-09-28T23:41:17.512Z,76.26
2022-09-28T23:43:45.307Z,76.40
2022-09-28T23:46:15.303Z,76.40
2022-09-28T23:48:45.155Z,76.35
2022-09-28T23:51:14.549Z,76.41
2022-09-28T23:53:43.505Z,76.52
2022-09-28T23:56:11.360Z,76.68
2022-09-28T23:58:40.821Z,76.68
